createdAt,value
2019-03-03T00:01:29.132Z,55.00
2019-03-03T00:03:59.854Z,55.30
2019-03-03T00:06:30.936Z,55.70
2019-03-03T00:09:01.898Z,55.80
2019-03-03T00:11:34.537Z,55.80
2019-03-03T00:14:07.300Z,55.80
2019-03-03T00:16:38.382Z,55.70
2019-03-03T00:19:09.585Z,55.80
2019-03-03T00:21:40.783Z,55.80
2019-03-03T00:24:11.985Z,55.70
2019-03-03T00:26:42.945Z,55.70
2019-03-03T00:29:14.026Z,56.00
2019-03-03T00:31:45.228Z,56.10
2019-03-03T00:34:16.550Z,56.40
2019-03-03T00:37:05.512Z,56.50
2019-03-03T00:43:48.834Z,56.50
2019-03-03T00:46:36.597Z,57.10
2019-03-03T00:49:25.081Z,57.20
2019-03-03T00:52:06.883Z,57.40
2019-03-03T00:55:03.129Z,57.50
2019-03-03T00:57:51.962Z,57.60
2019-03-03T01:00:46.083Z,57.40
2019-03-03T01:03:21.974Z,57.30
2019-03-03T01:06:01.925Z,57.10
2019-03-03T01:09:04.447Z,57.00
2019-03-03T01:11:54.847Z,57.00
2019-03-03T01:14:43.216Z,57.30
2019-03-03T01:17:31.453Z,57.40
2019-03-03T01:20:24.612Z,57.10
2019-03-03T01:23:19.213Z,56.90
2019-03-03T01:25:50.303Z,56.80
2019-03-03T01:28:21.139Z,56.80
2019-03-03T01:30:52.218Z,56.80
2019-03-03T01:33:24.026Z,56.60
2019-03-03T01:35:54.863Z,56.40
2019-03-03T01:38:26.181Z,56.20
2019-03-03T01:40:57.385Z,56.10
2019-03-03T01:43:28.223Z,56.30
2019-03-03T01:45:59.067Z,56.30
2019-03-03T01:48:30.027Z,56.30
2019-03-03T01:51:01.947Z,56.20
2019-03-03T01:53:33.511Z,56.20
2019-03-03T01:56:04.712Z,56.10
2019-03-03T01:58:36.752Z,55.90
2019-03-03T02:01:08.078Z,56.10
2019-03-03T02:03:40.234Z,56.10
2019-03-03T02:06:11.438Z,56.10
2019-03-03T02:08:42.878Z,56.00
2019-03-03T02:11:14.318Z,55.90
2019-03-03T02:13:46.481Z,55.90
2019-03-03T02:16:18.402Z,56.00
2019-03-03T02:18:49.964Z,55.90
2019-03-03T02:21:21.163Z,55.70
2019-03-03T02:23:52.124Z,55.80
2019-03-03T02:26:23.325Z,55.60
2019-03-03T02:28:54.288Z,55.80
2019-03-03T02:31:25.248Z,55.70
2019-03-03T02:33:56.573Z,55.60
2019-03-03T02:36:27.654Z,55.80
2019-03-03T02:38:58.378Z,55.70
2019-03-03T02:41:29.094Z,55.60
2019-03-03T02:44:00.545Z,55.60
2019-03-03T02:46:31.501Z,55.70
2019-03-03T02:49:03.002Z,55.60
2019-03-03T02:51:34.739Z,55.50
2019-03-03T02:54:06.421Z,55.60
2019-03-03T02:56:37.621Z,55.80
2019-03-03T02:59:08.824Z,55.90
2019-03-03T03:01:54.068Z,56.10
2019-03-03T03:04:25.147Z,56.00
2019-03-03T03:07:12.909Z,55.90
2019-03-03T03:10:02.711Z,56.00
2019-03-03T03:12:52.870Z,56.10
2019-03-03T03:15:51.551Z,55.70
2019-03-03T03:18:47.716Z,56.20
2019-03-03T03:21:28.514Z,56.40
2019-03-03T03:24:18.562Z,56.50
2019-03-03T03:27:07.289Z,56.30
2019-03-03T03:29:46.282Z,56.40
2019-03-03T03:32:36.561Z,56.30
2019-03-03T03:35:15.445Z,56.10
2019-03-03T03:38:09.084Z,56.10
2019-03-03T03:40:47.007Z,56.30
2019-03-03T03:43:52.288Z,56.40
2019-03-03T03:46:40.647Z,56.40
2019-03-03T03:49:24.328Z,56.40
2019-03-03T03:52:12.722Z,56.30
2019-03-03T03:55:08.490Z,56.30
2019-03-03T03:58:04.897Z,56.10
2019-03-03T04:00:58.418Z,56.60
2019-03-03T04:03:48.227Z,56.70
2019-03-03T04:06:34.778Z,56.60
2019-03-03T04:09:41.501Z,56.50
2019-03-03T04:12:18.102Z,56.30
2019-03-03T04:15:08.026Z,56.90
2019-03-03T04:17:59.509Z,56.80
2019-03-03T04:20:49.305Z,56.80
2019-03-03T04:23:51.228Z,56.90
2019-03-03T04:26:59.149Z,56.70
2019-03-03T04:29:47.389Z,56.70
2019-03-03T04:32:37.789Z,56.50
2019-03-03T04:35:14.034Z,56.40
2019-03-03T04:38:03.475Z,56.70
2019-03-03T04:40:49.675Z,56.60
2019-03-03T04:43:57.356Z,57.10
2019-03-03T04:46:45.958Z,56.40
2019-03-03T04:49:43.199Z,56.50
2019-03-03T04:52:22.201Z,56.70
2019-03-03T04:55:03.843Z,56.50
2019-03-03T04:58:06.003Z,56.30
2019-03-03T05:00:55.009Z,56.00
2019-03-03T05:03:47.527Z,56.20
2019-03-03T05:06:30.967Z,56.00
2019-03-03T05:09:14.213Z,56.00
2019-03-03T05:12:40.090Z,55.80
2019-03-03T05:15:47.412Z,55.70
2019-03-03T05:18:31.693Z,55.50
2019-03-03T05:21:03.382Z,55.60
2019-03-03T05:23:34.218Z,55.80
2019-03-03T05:26:05.660Z,55.70
2019-03-03T05:28:36.979Z,55.60
2019-03-03T05:31:07.940Z,55.40
2019-03-03T05:33:39.022Z,54.90
2019-03-03T05:36:10.104Z,54.70
2019-03-03T05:38:40.705Z,54.50
2019-03-03T05:41:12.026Z,54.60
2019-03-03T05:43:42.988Z,54.40
2019-03-03T05:46:14.070Z,54.30
2019-03-03T05:48:45.511Z,54.20
2019-03-03T05:51:17.912Z,54.10
2019-03-03T05:53:48.990Z,53.90
2019-03-03T05:56:19.955Z,54.10
2019-03-03T05:58:50.916Z,53.70
2019-03-03T06:01:22.114Z,53.80
2019-03-03T06:03:52.838Z,53.40
2019-03-03T06:06:24.041Z,53.90
2019-03-03T06:08:54.757Z,53.80
2019-03-03T06:11:25.601Z,53.90
2019-03-03T06:13:56.800Z,53.70
2019-03-03T06:16:28.722Z,53.40
2019-03-03T06:18:59.687Z,53.60
2019-03-03T06:21:31.364Z,53.70
2019-03-03T06:24:02.688Z,53.50
2019-03-03T06:26:34.606Z,53.50
2019-03-03T06:29:05.453Z,53.60
2019-03-03T06:31:36.530Z,53.20
2019-03-03T06:34:08.934Z,53.40
2019-03-03T06:36:40.142Z,53.30
2019-03-03T06:39:11.216Z,53.30
2019-03-03T06:41:41.934Z,53.10
2019-03-03T06:44:12.834Z,53.20
2019-03-03T06:46:43.976Z,53.10
2019-03-03T06:49:15.661Z,53.00
2019-03-03T06:51:46.620Z,53.10
2019-03-03T06:54:17.706Z,52.90
2019-03-03T06:56:48.422Z,52.80
2019-03-03T06:59:19.866Z,52.80
2019-03-03T07:01:50.707Z,53.00
2019-03-03T07:04:22.267Z,52.60
2019-03-03T07:06:52.747Z,52.90
2019-03-03T07:09:24.189Z,52.90
2019-03-03T07:11:56.590Z,52.80
2019-03-03T07:14:27.554Z,52.70
2019-03-03T07:16:58.395Z,52.60
2019-03-03T07:19:29.123Z,52.80
2019-03-03T07:22:00.075Z,52.70
2019-03-03T07:24:31.878Z,52.60
2019-03-03T07:27:02.967Z,52.00
2019-03-03T07:29:34.041Z,52.00
2019-03-03T07:32:04.766Z,51.80
2019-03-03T07:34:35.720Z,51.70
2019-03-03T07:37:06.565Z,51.60
2019-03-03T07:40:01.647Z,51.40
2019-03-03T07:42:33.205Z,51.70
2019-03-03T07:45:04.694Z,52.20
2019-03-03T07:47:35.367Z,51.60
2019-03-03T07:52:44.010Z,51.30
2019-03-03T07:55:16.773Z,51.00
2019-03-03T07:57:47.499Z,50.60
2019-03-03T08:00:21.336Z,51.10
2019-03-03T08:02:52.535Z,50.90
2019-03-03T08:05:23.259Z,50.40
2019-03-03T08:07:54.581Z,50.50
2019-03-03T08:10:25.785Z,50.70
2019-03-03T08:12:57.221Z,50.20
2019-03-03T08:15:27.823Z,50.30
2019-03-03T08:17:58.783Z,50.40
2019-03-03T08:20:29.865Z,50.70
2019-03-03T08:23:01.794Z,50.40
2019-03-03T08:25:33.229Z,50.20
2019-03-03T08:28:05.629Z,50.20
2019-03-03T08:30:36.830Z,50.00
2019-03-03T08:33:07.678Z,49.70
2019-03-03T08:35:38.874Z,49.90
2019-03-03T08:38:10.313Z,49.60
2019-03-03T08:40:41.516Z,49.40
2019-03-03T08:43:34.436Z,49.40
2019-03-03T08:46:33.598Z,49.50
2019-03-03T08:49:32.282Z,49.70
2019-03-03T08:52:30.964Z,50.20
2019-03-03T08:55:24.364Z,49.90
2019-03-03T08:58:01.803Z,49.70
2019-03-03T09:00:46.212Z,49.50
2019-03-03T09:03:32.046Z,49.50
2019-03-03T09:06:34.098Z,49.90
2019-03-03T09:09:24.608Z,49.20
2019-03-03T09:12:20.774Z,49.10
2019-03-03T09:14:59.292Z,50.10
2019-03-03T09:17:42.254Z,49.90
2019-03-03T09:20:25.346Z,50.00
2019-03-03T09:23:12.617Z,49.30
2019-03-03T09:26:05.539Z,49.10
2019-03-03T09:28:51.621Z,48.80
2019-03-03T09:32:00.021Z,48.80
2019-03-03T09:34:49.823Z,49.00
2019-03-03T09:37:42.504Z,49.60
2019-03-03T09:40:31.706Z,49.40
2019-03-03T09:43:17.428Z,48.80
2019-03-03T09:46:06.031Z,49.00
2019-03-03T09:48:53.670Z,49.50
2019-03-03T09:51:33.872Z,48.40
2019-03-03T09:54:25.474Z,47.80
2019-03-03T09:57:15.873Z,47.30
2019-03-03T10:00:04.595Z,46.70
2019-03-03T10:02:48.396Z,47.50
2019-03-03T10:05:40.238Z,46.20
2019-03-03T10:08:26.683Z,46.10
2019-03-03T10:11:08.802Z,46.50
2019-03-03T10:13:50.731Z,46.80
2019-03-03T10:16:40.604Z,47.10
2019-03-03T10:19:36.406Z,46.70
2019-03-03T10:22:35.566Z,46.80
2019-03-03T10:25:33.291Z,46.70
2019-03-03T10:28:23.931Z,46.00
2019-03-03T10:31:27.291Z,45.40
2019-03-03T10:34:09.305Z,43.90
2019-03-03T10:37:08.577Z,44.20
2019-03-03T10:39:51.419Z,43.60
2019-03-03T10:42:38.151Z,42.80
2019-03-03T10:45:17.941Z,43.20
2019-03-03T10:48:10.379Z,42.90
2019-03-03T10:51:03.543Z,43.40
2019-03-03T10:53:43.504Z,43.00
2019-03-03T10:56:52.623Z,43.10
2019-03-03T10:59:33.547Z,43.50
2019-03-03T11:02:30.069Z,43.50
2019-03-03T11:05:15.668Z,43.20
2019-03-03T11:08:18.795Z,43.60
2019-03-03T11:11:12.311Z,44.10
2019-03-03T11:14:17.957Z,43.90
2019-03-03T11:17:06.555Z,44.80
2019-03-03T11:20:00.920Z,43.40
2019-03-03T11:22:51.317Z,43.80
2019-03-03T11:25:50.482Z,43.80
2019-03-03T11:28:47.000Z,43.90
2019-03-03T11:31:33.563Z,44.10
2019-03-03T11:34:17.843Z,44.40
2019-03-03T11:37:23.010Z,44.30
2019-03-03T11:40:24.809Z,44.50
2019-03-03T11:43:13.409Z,44.60
2019-03-03T11:46:12.214Z,44.90
2019-03-03T11:49:02.372Z,44.80
2019-03-03T11:51:52.416Z,45.10
2019-03-03T11:54:54.575Z,44.60
2019-03-03T11:57:45.597Z,45.00
2019-03-03T12:00:35.621Z,44.80
2019-03-03T12:03:31.540Z,45.00
2019-03-03T12:06:17.739Z,45.30
2019-03-03T12:09:10.908Z,45.50
2019-03-03T12:11:51.466Z,45.30
2019-03-03T12:14:41.143Z,46.00
2019-03-03T12:17:28.186Z,46.10
2019-03-03T12:20:21.342Z,46.10
2019-03-03T12:23:20.276Z,46.00
2019-03-03T12:26:17.753Z,45.80
2019-03-03T12:29:06.232Z,45.80
2019-03-03T12:31:56.658Z,46.00
2019-03-03T12:34:45.115Z,45.70
2019-03-03T12:37:25.796Z,46.00
2019-03-03T12:40:15.597Z,45.90
2019-03-03T12:43:04.083Z,45.60
2019-03-03T12:46:00.601Z,45.30
2019-03-03T12:48:54.599Z,45.00
2019-03-03T12:51:43.926Z,45.30
2019-03-03T12:54:42.846Z,45.10
2019-03-03T12:57:32.527Z,45.00
2019-03-03T13:00:15.967Z,45.20
2019-03-03T13:03:04.451Z,45.00
2019-03-03T13:06:03.614Z,45.00
2019-03-03T13:08:59.183Z,44.60
2019-03-03T13:11:50.979Z,45.00
2019-03-03T13:14:36.497Z,45.30
2019-03-03T13:17:36.136Z,44.30
2019-03-03T13:20:20.174Z,43.90
2019-03-03T13:23:21.258Z,44.60
2019-03-03T13:26:11.061Z,43.10
2019-03-03T13:29:00.514Z,43.00
2019-03-03T13:31:54.143Z,43.10
2019-03-03T13:34:37.465Z,43.90
2019-03-03T13:37:16.226Z,42.70
2019-03-03T13:40:06.773Z,43.30
2019-03-03T13:42:57.390Z,43.30
2019-03-03T13:45:33.750Z,43.50
2019-03-03T13:48:05.910Z,42.80
2019-03-03T13:50:37.352Z,42.90
2019-03-03T13:53:10.114Z,43.40
2019-03-03T13:55:41.197Z,42.90
2019-03-03T13:58:12.756Z,42.90
2019-03-03T14:00:43.839Z,43.20
2019-03-03T14:03:15.759Z,43.00
2019-03-03T14:05:47.442Z,42.60
2019-03-03T14:08:18.520Z,43.00
2019-03-03T14:10:51.162Z,42.50
2019-03-03T14:13:22.965Z,42.80
2019-03-03T14:15:54.045Z,42.50
2019-03-03T14:18:26.688Z,42.70
2019-03-03T14:20:58.013Z,42.40
2019-03-03T14:23:29.089Z,42.30
2019-03-03T14:26:00.050Z,42.30
2019-03-03T14:28:31.615Z,42.10
2019-03-03T14:31:02.815Z,42.20
2019-03-03T14:33:34.017Z,41.70
2019-03-03T14:36:04.979Z,41.80
2019-03-03T14:38:35.936Z,41.40
2019-03-03T14:41:07.258Z,41.40
2019-03-03T14:43:38.462Z,41.50
2019-03-03T14:46:09.421Z,41.50
2019-03-03T14:48:40.749Z,41.20
2019-03-03T14:51:11.705Z,41.50
2019-03-03T14:53:43.387Z,41.60
2019-03-03T14:56:13.867Z,41.80
2019-03-03T14:58:45.435Z,41.50
2019-03-03T15:01:17.589Z,41.10
2019-03-03T15:03:48.911Z,41.70
2019-03-03T15:06:24.417Z,41.40
2019-03-03T15:08:53.952Z,41.40
2019-03-03T15:11:25.513Z,41.40
2019-03-03T15:13:56.475Z,41.40
2019-03-03T15:16:27.922Z,41.00
2019-03-03T15:18:59.118Z,40.40
2019-03-03T15:21:30.200Z,40.90
2019-03-03T15:24:03.590Z,40.80
2019-03-03T15:26:33.925Z,41.00
2019-03-03T15:29:06.669Z,41.00
2019-03-03T15:31:39.563Z,40.80
2019-03-03T15:34:10.765Z,41.10
2019-03-03T15:36:41.487Z,40.90
2019-03-03T15:39:12.687Z,40.70
2019-03-03T15:41:43.769Z,40.20
2019-03-03T15:44:14.612Z,40.10
2019-03-03T15:46:46.413Z,40.50
2019-03-03T15:49:16.894Z,40.00
2019-03-03T15:51:48.215Z,40.30
2019-03-03T15:54:19.774Z,40.00
2019-03-03T15:56:50.737Z,39.70
2019-03-03T15:59:21.822Z,39.90
2019-03-03T16:01:52.779Z,40.00
2019-03-03T16:04:24.225Z,40.00
2019-03-03T16:06:55.422Z,40.00
2019-03-03T16:09:27.343Z,39.90
2019-03-03T16:11:58.835Z,39.40
2019-03-03T16:14:30.591Z,39.70
2019-03-03T16:17:02.026Z,39.90
2019-03-03T16:19:33.827Z,39.40
2019-03-03T16:22:05.270Z,39.70
2019-03-03T16:24:55.072Z,40.00
2019-03-03T16:27:26.031Z,39.20
2019-03-03T16:29:56.995Z,39.40
2019-03-03T16:32:28.073Z,38.90
2019-03-03T16:34:59.397Z,38.80
2019-03-03T16:37:30.239Z,39.10
2019-03-03T16:40:01.085Z,39.20
2019-03-03T16:42:32.159Z,38.60
2019-03-03T16:45:03.658Z,38.50
2019-03-03T16:47:35.043Z,38.80
2019-03-03T16:50:08.647Z,38.70
2019-03-03T16:52:41.525Z,39.10
2019-03-03T16:55:12.851Z,39.40
2019-03-03T16:57:44.173Z,38.90
2019-03-03T17:00:18.129Z,39.10
2019-03-03T17:02:49.816Z,39.10
2019-03-03T17:05:21.371Z,39.10
2019-03-03T17:07:53.053Z,39.20
2019-03-03T17:10:24.260Z,39.20
2019-03-03T17:12:55.697Z,39.00
2019-03-03T17:15:27.264Z,39.20
2019-03-03T17:17:58.576Z,39.30
2019-03-03T17:20:29.604Z,39.50
2019-03-03T17:23:01.108Z,39.40
2019-03-03T17:25:32.069Z,39.60
2019-03-03T17:28:03.750Z,40.00
2019-03-03T17:30:35.424Z,39.70
2019-03-03T17:33:06.751Z,39.40
2019-03-03T17:35:37.948Z,39.50
2019-03-03T17:38:09.390Z,39.60
2019-03-03T17:40:40.828Z,39.60
2019-03-03T17:43:11.911Z,39.80
2019-03-03T17:45:43.352Z,39.70
2019-03-03T17:48:15.275Z,39.80
2019-03-03T17:50:46.597Z,40.00
2019-03-03T17:53:17.796Z,40.00
2019-03-03T17:55:48.759Z,40.30
2019-03-03T17:58:19.718Z,39.60
2019-03-03T18:00:50.920Z,39.80
2019-03-03T18:03:23.322Z,39.60
2019-03-03T18:05:54.524Z,39.60
2019-03-03T18:08:25.845Z,40.10
2019-03-03T18:10:56.810Z,40.00
2019-03-03T18:13:27.768Z,40.10
2019-03-03T18:15:59.327Z,40.70
2019-03-03T18:18:30.050Z,40.90
2019-03-03T18:21:00.775Z,40.50
2019-03-03T18:23:31.853Z,41.00
2019-03-03T18:26:03.294Z,41.10
2019-03-03T18:28:35.095Z,41.10
2019-03-03T18:31:06.295Z,41.00
2019-03-03T18:33:37.618Z,40.80
2019-03-03T18:36:09.777Z,41.30
2019-03-03T18:38:40.979Z,41.50
2019-03-03T18:41:12.301Z,42.00
2019-03-03T18:43:44.822Z,42.00
2019-03-03T18:46:16.025Z,41.90
2019-03-03T18:48:48.184Z,41.40
2019-03-03T18:51:19.754Z,41.40
2019-03-03T18:53:51.079Z,41.60
2019-03-03T18:56:21.910Z,41.40
2019-03-03T18:58:52.630Z,41.90
2019-03-03T19:01:23.832Z,41.60
2019-03-03T19:03:54.795Z,42.30
2019-03-03T19:06:25.998Z,42.70
2019-03-03T19:08:57.796Z,42.70
2019-03-03T19:11:29.480Z,42.30
2019-03-03T19:14:00.676Z,42.10
2019-03-03T19:16:31.522Z,42.50
2019-03-03T19:19:02.842Z,43.30
2019-03-03T19:21:34.641Z,42.60
2019-03-03T19:24:05.964Z,42.40
2019-03-03T19:26:37.405Z,42.20
2019-03-03T19:29:08.485Z,42.20
2019-03-03T19:31:40.887Z,42.80
2019-03-03T19:34:12.329Z,42.90
2019-03-03T19:36:43.649Z,43.00
2019-03-03T19:39:14.857Z,42.80
2019-03-03T19:41:45.817Z,43.40
2019-03-03T19:44:16.535Z,43.20
2019-03-03T19:46:47.750Z,43.00
2019-03-03T19:49:18.815Z,42.50
2019-03-03T19:51:50.383Z,42.00
2019-03-03T19:54:21.586Z,42.20
2019-03-03T19:56:52.899Z,43.10
2019-03-03T19:59:23.862Z,42.30
2019-03-03T20:01:54.945Z,42.10
2019-03-03T20:04:26.868Z,42.10
2019-03-03T20:06:57.956Z,42.30
2019-03-03T20:09:29.028Z,42.30
2019-03-03T20:12:00.707Z,42.40
2019-03-03T20:14:31.791Z,42.50
2019-03-03T20:17:02.870Z,42.60
2019-03-03T20:19:34.196Z,42.60
2019-03-03T20:22:05.513Z,42.50
2019-03-03T20:24:37.196Z,42.20
2019-03-03T20:27:09.355Z,42.40
2019-03-03T20:29:41.038Z,42.40
2019-03-03T20:32:12.001Z,42.70
2019-03-03T20:34:43.207Z,42.40
2019-03-03T20:37:14.523Z,42.00
2019-03-03T20:39:45.601Z,42.30
2019-03-03T20:42:17.883Z,42.60
2019-03-03T20:44:50.044Z,42.60
2019-03-03T20:47:22.447Z,42.20
2019-03-03T20:49:53.768Z,42.50
2019-03-03T20:52:24.733Z,41.90
2019-03-03T20:54:58.211Z,41.50
2019-03-03T20:57:29.657Z,41.00
2019-03-03T21:00:00.853Z,40.50
2019-03-03T21:02:32.054Z,38.30
2019-03-03T21:05:03.253Z,39.50
2019-03-03T21:07:34.701Z,39.90
2019-03-03T21:10:05.900Z,40.60
2019-03-03T21:12:36.737Z,38.90
2019-03-03T21:15:08.662Z,39.50
2019-03-03T21:17:39.745Z,39.20
2019-03-03T21:20:12.265Z,39.10
2019-03-03T21:22:46.825Z,38.50
2019-03-03T21:25:18.391Z,38.70
2019-03-03T21:27:49.708Z,39.50
2019-03-03T21:30:22.826Z,38.90
2019-03-03T21:32:54.990Z,38.50
2019-03-03T21:35:26.066Z,38.80
2019-03-03T21:37:59.004Z,38.40
2019-03-03T21:40:30.035Z,38.50
2019-03-03T21:43:01.115Z,39.00
2019-03-03T21:45:32.315Z,38.30
2019-03-03T21:48:03.525Z,37.70
2019-03-03T21:50:36.159Z,38.40
2019-03-03T21:53:07.238Z,38.20
2019-03-03T21:55:38.683Z,37.60
2019-03-03T21:58:09.882Z,37.40
2019-03-03T22:00:41.325Z,38.20
2019-03-03T22:03:13.966Z,38.40
2019-03-03T22:05:45.287Z,38.00
2019-03-03T22:08:16.368Z,37.90
2019-03-03T22:10:47.450Z,37.60
2019-03-03T22:13:18.414Z,37.90
2019-03-03T22:15:49.497Z,38.00
2019-03-03T22:18:23.812Z,37.80
2019-03-03T22:20:55.732Z,37.90
2019-03-03T22:23:26.934Z,38.00
2019-03-03T22:25:58.016Z,38.10
2019-03-03T22:28:28.865Z,38.40
2019-03-03T22:30:59.942Z,38.30
2019-03-03T22:33:31.022Z,38.40
2019-03-03T22:36:02.228Z,39.30
2019-03-03T22:38:33.062Z,39.50
2019-03-03T22:41:04.146Z,40.60
2019-03-03T22:43:34.870Z,39.60
2019-03-03T22:46:06.188Z,40.00
2019-03-03T22:48:37.269Z,40.00
2019-03-03T22:51:08.229Z,39.80
2019-03-03T22:53:39.792Z,39.90
2019-03-03T22:56:10.994Z,40.00
2019-03-03T22:58:42.073Z,40.10
2019-03-03T23:01:24.434Z,40.00
2019-03-03T23:04:32.956Z,39.40
2019-03-03T23:07:31.517Z,39.40
2019-03-03T23:10:43.161Z,39.90
2019-03-03T23:13:50.481Z,39.30
2019-03-03T23:16:51.565Z,39.60
2019-03-03T23:19:48.564Z,39.50
2019-03-03T23:22:57.445Z,40.20
2019-03-03T23:25:52.167Z,39.90
2019-03-03T23:28:24.091Z,39.80
2019-03-03T23:30:56.009Z,39.70
2019-03-03T23:33:27.333Z,40.20
2019-03-03T23:35:58.891Z,40.10
2019-03-03T23:38:30.146Z,40.00
2019-03-03T23:41:01.294Z,40.50
2019-03-03T23:43:33.935Z,39.70
2019-03-03T23:46:04.778Z,39.80
2019-03-03T23:48:36.147Z,39.70
2019-03-03T23:51:06.941Z,40.10
2019-03-03T23:53:37.669Z,39.90
2019-03-03T23:56:08.864Z,40.00
2019-03-03T23:58:39.943Z,40.10
